BEE246 EGJJ-LEMH
Flight info
| Callsign | BEE246 |
|---|---|
| Flight time | N/A |
| Altitude | 37000 |
| Route | DIN A25 GODAN UP87 TERPO UM616 TUPAR DCT CNA DCT AGN DCT ROCAN DCT GEANT N727 SARGO |
| Aircraft | E75L/M-SDE3GILORVW/S |
Departure
| Time | N/A |
|---|---|
| Airport | Jersey Airport (EGJJ) |
Arrival
| Time | 2026-04-17 22:41 |
|---|---|
| Airport | Menorca Airport (LEMH) |
| Time | Latitude | Longitude | Altitude | Speed | Heading |
|---|---|---|---|---|---|
| 2026-04-17 22:12 | 41.78518 | 2.91247 | 37173 ft | 489 kts | 146° |
| 2026-04-17 22:12 | 41.75745 | 2.93865 | 37173 ft | 489 kts | 146° |
| 2026-04-17 22:13 | 41.70197 | 2.99109 | 37173 ft | 490 kts | 146° |
| 2026-04-17 22:13 | 41.64639 | 3.04366 | 37175 ft | 490 kts | 146° |
| 2026-04-17 22:14 | 41.59073 | 3.09628 | 37177 ft | 491 kts | 146° |
| 2026-04-17 22:14 | 41.53513 | 3.14879 | 37178 ft | 491 kts | 146° |
| 2026-04-17 22:15 | 41.47905 | 3.20068 | 37178 ft | 491 kts | 148° |
| 2026-04-17 22:15 | 41.42099 | 3.24922 | 37179 ft | 491 kts | 149° |
| 2026-04-17 22:16 | 41.36282 | 3.29655 | 37180 ft | 489 kts | 149° |
| 2026-04-17 22:16 | 41.30527 | 3.34326 | 36847 ft | 484 kts | 149° |
| 2026-04-17 22:16 | 41.27660 | 3.36655 | 35893 ft | 483 kts | 149° |
| 2026-04-17 22:17 | 41.24808 | 3.38974 | 34988 ft | 480 kts | 149° |
| 2026-04-17 22:17 | 41.21972 | 3.41280 | 34104 ft | 477 kts | 149° |
| 2026-04-17 22:17 | 41.19158 | 3.43569 | 33229 ft | 473 kts | 149° |
| 2026-04-17 22:17 | 41.16329 | 3.45868 | 32345 ft | 469 kts | 149° |
| 2026-04-17 22:18 | 41.13596 | 3.48085 | 31485 ft | 466 kts | 149° |
| 2026-04-17 22:18 | 41.10807 | 3.50346 | 30603 ft | 464 kts | 149° |
| 2026-04-17 22:18 | 41.08057 | 3.52575 | 29733 ft | 464 kts | 149° |
| 2026-04-17 22:18 | 41.05316 | 3.54794 | 28921 ft | 461 kts | 149° |
| 2026-04-17 22:19 | 41.02590 | 3.56999 | 28201 ft | 456 kts | 149° |
| 2026-04-17 22:19 | 40.99897 | 3.59177 | 27525 ft | 453 kts | 149° |
| 2026-04-17 22:19 | 40.97222 | 3.61339 | 26873 ft | 449 kts | 148° |
| 2026-04-17 22:19 | 40.94572 | 3.63478 | 26242 ft | 445 kts | 148° |
| 2026-04-17 22:20 | 40.91949 | 3.65593 | 25626 ft | 441 kts | 148° |
| 2026-04-17 22:20 | 40.89350 | 3.67688 | 25024 ft | 437 kts | 148° |
| 2026-04-17 22:20 | 40.86772 | 3.69762 | 24431 ft | 432 kts | 148° |
| 2026-04-17 22:20 | 40.84222 | 3.71814 | 23854 ft | 428 kts | 148° |
| 2026-04-17 22:21 | 40.81692 | 3.73847 | 23279 ft | 424 kts | 148° |
| 2026-04-17 22:21 | 40.79152 | 3.75886 | 22708 ft | 420 kts | 148° |
| 2026-04-17 22:21 | 40.76671 | 3.77877 | 22156 ft | 416 kts | 148° |
| 2026-04-17 22:21 | 40.74204 | 3.79854 | 21606 ft | 413 kts | 148° |
| 2026-04-17 22:22 | 40.71766 | 3.81806 | 21058 ft | 409 kts | 148° |
| 2026-04-17 22:22 | 40.69348 | 3.83740 | 20513 ft | 406 kts | 148° |
| 2026-04-17 22:22 | 40.66948 | 3.85660 | 19985 ft | 402 kts | 148° |
| 2026-04-17 22:22 | 40.64564 | 3.87564 | 19461 ft | 400 kts | 148° |
| 2026-04-17 22:23 | 40.62203 | 3.89448 | 18928 ft | 396 kts | 148° |
| 2026-04-17 22:23 | 40.59864 | 3.91314 | 18403 ft | 392 kts | 148° |
| 2026-04-17 22:23 | 40.57546 | 3.93161 | 17881 ft | 389 kts | 148° |
| 2026-04-17 22:23 | 40.55241 | 3.94995 | 17368 ft | 386 kts | 148° |
| 2026-04-17 22:24 | 40.52954 | 3.96815 | 16859 ft | 383 kts | 148° |
| 2026-04-17 22:24 | 40.50682 | 3.98615 | 16486 ft | 380 kts | 148° |
| 2026-04-17 22:24 | 40.48274 | 4.00003 | 16322 ft | 381 kts | 164° |
| 2026-04-17 22:24 | 40.45652 | 4.00784 | 16293 ft | 382 kts | 166° |
| 2026-04-17 22:25 | 40.43080 | 4.01655 | 16255 ft | 383 kts | 165° |
| 2026-04-17 22:25 | 40.40513 | 4.02558 | 16230 ft | 383 kts | 164° |
| 2026-04-17 22:25 | 40.37973 | 4.03467 | 16134 ft | 377 kts | 164° |
| 2026-04-17 22:25 | 40.35428 | 4.04382 | 15616 ft | 380 kts | 164° |
| 2026-04-17 22:26 | 40.32896 | 4.05291 | 14993 ft | 376 kts | 164° |
| 2026-04-17 22:26 | 40.30388 | 4.06191 | 14368 ft | 372 kts | 164° |
| 2026-04-17 22:26 | 40.27874 | 4.06893 | 13736 ft | 370 kts | 175° |
| 2026-04-17 22:26 | 40.25337 | 4.06550 | 13153 ft | 367 kts | 193° |
| 2026-04-17 22:27 | 40.22884 | 4.05682 | 12576 ft | 365 kts | 197° |
| 2026-04-17 22:27 | 40.20471 | 4.04703 | 12027 ft | 360 kts | 198° |
| 2026-04-17 22:27 | 40.18085 | 4.03724 | 11531 ft | 351 kts | 198° |
| 2026-04-17 22:27 | 40.15776 | 4.02803 | 11076 ft | 343 kts | 197° |
| 2026-04-17 22:28 | 40.13521 | 4.01934 | 10622 ft | 335 kts | 196° |
| 2026-04-17 22:28 | 40.11300 | 4.01107 | 10167 ft | 329 kts | 195° |
| 2026-04-17 22:28 | 40.09117 | 4.00319 | 9713 ft | 324 kts | 195° |
| 2026-04-17 22:28 | 40.06964 | 3.99564 | 9262 ft | 319 kts | 194° |
| 2026-04-17 22:29 | 40.04835 | 3.98834 | 8814 ft | 316 kts | 194° |
| 2026-04-17 22:29 | 40.02720 | 3.98123 | 8362 ft | 312 kts | 194° |
| 2026-04-17 22:29 | 40.00629 | 3.97434 | 7911 ft | 309 kts | 193° |
| 2026-04-17 22:29 | 39.98556 | 3.96760 | 7461 ft | 306 kts | 193° |
| 2026-04-17 22:30 | 39.96503 | 3.96096 | 7017 ft | 303 kts | 194° |
| 2026-04-17 22:30 | 39.94465 | 3.95435 | 6565 ft | 301 kts | 194° |
| 2026-04-17 22:30 | 39.92441 | 3.94782 | 6114 ft | 298 kts | 194° |
| 2026-04-17 22:30 | 39.90410 | 3.94158 | 5661 ft | 296 kts | 191° |
| 2026-04-17 22:31 | 39.88388 | 3.93759 | 5214 ft | 293 kts | 186° |
| 2026-04-17 22:31 | 39.86374 | 3.93607 | 4904 ft | 285 kts | 180° |
| 2026-04-17 22:31 | 39.84430 | 3.93689 | 4722 ft | 276 kts | 175° |
| 2026-04-17 22:31 | 39.82553 | 3.93977 | 4541 ft | 270 kts | 171° |
| 2026-04-17 22:32 | 39.80728 | 3.94458 | 4366 ft | 266 kts | 166° |
| 2026-04-17 22:32 | 39.78959 | 3.95124 | 4191 ft | 264 kts | 161° |
| 2026-04-17 22:32 | 39.77249 | 3.95968 | 4016 ft | 263 kts | 156° |
| 2026-04-17 22:32 | 39.75588 | 3.96994 | 3839 ft | 261 kts | 152° |
| 2026-04-17 22:33 | 39.74022 | 3.98169 | 3664 ft | 260 kts | 147° |
| 2026-04-17 22:33 | 39.72536 | 3.99499 | 3489 ft | 259 kts | 143° |
| 2026-04-17 22:33 | 39.71144 | 4.00967 | 3318 ft | 257 kts | 138° |
| 2026-04-17 22:33 | 39.69853 | 4.02564 | 3145 ft | 257 kts | 134° |
| 2026-04-17 22:34 | 39.68663 | 4.04285 | 2970 ft | 256 kts | 129° |
| 2026-04-17 22:34 | 39.67583 | 4.06117 | 2795 ft | 255 kts | 125° |
| 2026-04-17 22:34 | 39.66621 | 4.08043 | 2620 ft | 255 kts | 120° |
| 2026-04-17 22:34 | 39.65778 | 4.10056 | 2448 ft | 254 kts | 116° |
| 2026-04-17 22:35 | 39.65061 | 4.12135 | 2276 ft | 253 kts | 111° |
| 2026-04-17 22:35 | 39.64476 | 4.14256 | 2130 ft | 245 kts | 107° |
| 2026-04-17 22:35 | 39.64039 | 4.16327 | 2087 ft | 230 kts | 102° |
| 2026-04-17 22:35 | 39.63742 | 4.18285 | 2086 ft | 217 kts | 98° |
| 2026-04-17 22:36 | 39.63777 | 4.20198 | 2005 ft | 207 kts | 71° |
| 2026-04-17 22:36 | 39.64680 | 4.21533 | 2013 ft | 199 kts | 28° |
| 2026-04-17 22:36 | 39.66011 | 4.21775 | 2016 ft | 195 kts | 350° |
| 2026-04-17 22:36 | 39.67301 | 4.21251 | 2067 ft | 196 kts | 339° |
| 2026-04-17 22:37 | 39.68551 | 4.20563 | 2041 ft | 195 kts | 335° |
| 2026-04-17 22:37 | 39.69773 | 4.19824 | 2007 ft | 194 kts | 334° |
| 2026-04-17 22:37 | 39.70985 | 4.19074 | 2001 ft | 193 kts | 335° |
| 2026-04-17 22:37 | 39.72275 | 4.18657 | 1966 ft | 194 kts | 2° |
| 2026-04-17 22:38 | 39.73493 | 4.19300 | 2037 ft | 187 kts | 31° |
| 2026-04-17 22:38 | 39.74641 | 4.20007 | 2001 ft | 180 kts | 10° |
| 2026-04-17 22:38 | 39.75455 | 4.20046 | 2041 ft | 168 kts | 358° |
| 2026-04-17 22:38 | 39.76609 | 4.19996 | 2210 ft | 165 kts | 358° |
| 2026-04-17 22:39 | 39.78055 | 4.20189 | 2085 ft | 157 kts | 9° |
| 2026-04-17 22:39 | 39.78759 | 4.20356 | 1891 ft | 148 kts | 8° |
| 2026-04-17 22:39 | 39.80745 | 4.20734 | 1180 ft | 139 kts | 7° |
| 2026-04-17 22:40 | 39.81682 | 4.20913 | 838 ft | 133 kts | 7° |
| 2026-04-17 22:40 | 39.82576 | 4.21102 | 667 ft | 129 kts | 8° |
| 2026-04-17 22:40 | 39.83452 | 4.21282 | 591 ft | 128 kts | 7° |
| 2026-04-17 22:40 | 39.84330 | 4.21464 | 479 ft | 129 kts | 7° |
| 2026-04-17 22:41 | 39.85217 | 4.21650 | 344 ft | 128 kts | 8° |
| 2026-04-17 22:41 | 39.86024 | 4.21813 | 309 ft | 94 kts | 7° |
| 2026-04-17 22:41 | 39.86388 | 4.21882 | 309 ft | 20 kts | 10° |
| 2026-04-17 22:41 | 39.86420 | 4.21942 | 309 ft | 7 kts | 117° |
| 2026-04-17 22:42 | 39.86404 | 4.21996 | 309 ft | 5 kts | 104° |
| 2026-04-17 22:42 | 39.86400 | 4.22022 | 309 ft | 1 kts | 102° |
| 2026-04-17 22:42 | 39.86398 | 4.22034 | 309 ft | 2 kts | 101° |
| 2026-04-17 22:42 | 39.86393 | 4.22070 | 309 ft | 6 kts | 99° |
| 2026-04-17 22:43 | 39.86383 | 4.22143 | 309 ft | 10 kts | 99° |
| 2026-04-17 22:43 | 39.86370 | 4.22243 | 309 ft | 13 kts | 99° |
| 2026-04-17 22:43 | 39.86354 | 4.22364 | 309 ft | 13 kts | 99° |
| 2026-04-17 22:43 | 39.86343 | 4.22459 | 309 ft | 6 kts | 99° |
| 2026-04-17 22:44 | 39.86342 | 4.22466 | 309 ft | 0 kts | 100° |